createdAt,value
2022-08-03T00:00:05.230Z,21.00
2022-08-03T00:03:08.759Z,20.80
2022-08-03T00:06:04.542Z,20.30
2022-08-03T00:08:40.948Z,20.50
2022-08-03T00:11:17.058Z,20.40
2022-08-03T00:13:53.552Z,20.90
2022-08-03T00:16:29.584Z,20.20
2022-08-03T00:19:06.159Z,20.90
2022-08-03T00:21:42.293Z,20.50
2022-08-03T00:24:18.584Z,21.00
2022-08-03T00:26:54.708Z,21.10
2022-08-03T00:29:30.785Z,19.90
2022-08-03T00:32:07.976Z,20.40
2022-08-03T00:34:58.461Z,21.00
2022-08-03T00:37:40.755Z,21.10
2022-08-03T00:40:21.301Z,21.90
2022-08-03T00:43:00.096Z,21.80
2022-08-03T00:45:41.345Z,21.40
2022-08-03T00:48:29.549Z,21.00
2022-08-03T00:51:09.999Z,19.70
2022-08-03T00:53:46.480Z,21.40
2022-08-03T00:56:22.837Z,21.60
2022-08-03T00:59:01.864Z,20.60
2022-08-03T01:01:37.921Z,20.10
2022-08-03T01:04:13.885Z,22.10
2022-08-03T01:07:04.577Z,22.40
2022-08-03T01:10:01.880Z,22.80
2022-08-03T01:12:54.845Z,22.70
2022-08-03T01:15:49.696Z,22.80
2022-08-03T01:18:37.719Z,23.30
2022-08-03T01:21:23.465Z,23.00
2022-08-03T01:24:23.935Z,23.20
2022-08-03T01:27:18.979Z,22.90
2022-08-03T01:30:07.223Z,22.90
2022-08-03T01:33:00.969Z,23.10
2022-08-03T01:35:46.782Z,23.00
2022-08-03T01:38:30.713Z,22.90
2022-08-03T01:41:13.271Z,22.80
2022-08-03T01:44:03.053Z,22.20
2022-08-03T01:46:51.692Z,22.50
2022-08-03T01:49:31.343Z,22.30
2022-08-03T01:52:09.575Z,23.70
2022-08-03T01:54:50.600Z,23.10
2022-08-03T01:57:29.540Z,24.10
2022-08-03T02:00:09.598Z,22.00
2022-08-03T02:02:51.846Z,21.30
2022-08-03T02:05:31.092Z,21.30
2022-08-03T02:08:12.147Z,21.60
2022-08-03T02:10:51.108Z,21.90
2022-08-03T02:13:30.273Z,21.50
2022-08-03T02:16:08.726Z,21.40
2022-08-03T02:18:45.088Z,21.40
2022-08-03T02:21:56.447Z,22.10
2022-08-03T02:24:22.307Z,20.30
2022-08-03T02:27:02.503Z,20.90
2022-08-03T02:29:43.583Z,22.30
2022-08-03T02:32:26.551Z,22.10
2022-08-03T02:35:06.116Z,21.30
2022-08-03T02:37:51.510Z,19.90
2022-08-03T02:40:29.521Z,20.30
2022-08-03T02:43:12.026Z,20.40
2022-08-03T02:45:54.321Z,21.50
2022-08-03T02:48:37.063Z,21.10
2022-08-03T02:51:14.213Z,21.30
2022-08-03T02:53:51.626Z,23.00
2022-08-03T02:56:29.507Z,23.70
2022-08-03T02:59:07.516Z,23.80
2022-08-03T03:01:45.658Z,24.90
2022-08-03T03:04:22.342Z,24.60
2022-08-03T03:07:06.751Z,25.00
2022-08-03T03:09:45.929Z,24.90
2022-08-03T03:12:23.783Z,25.50
2022-08-03T03:14:59.731Z,24.40
2022-08-03T03:17:38.597Z,24.70
2022-08-03T03:20:29.393Z,24.30
2022-08-03T03:25:42.961Z,23.70
2022-08-03T03:28:19.768Z,22.90
2022-08-03T03:30:56.046Z,24.10
2022-08-03T03:33:32.201Z,24.10
2022-08-03T03:36:09.721Z,24.30
2022-08-03T03:38:45.740Z,25.00
2022-08-03T03:41:22.163Z,25.60
2022-08-03T03:43:58.613Z,24.70
2022-08-03T03:46:35.069Z,23.10
2022-08-03T03:49:11.614Z,24.80
2022-08-03T03:51:47.597Z,25.70
2022-08-03T03:54:25.504Z,24.00
2022-08-03T03:57:06.560Z,21.40
2022-08-03T03:59:46.314Z,19.70
2022-08-03T04:02:22.366Z,18.10
2022-08-03T04:05:16.075Z,19.90
2022-08-03T04:08:19.624Z,17.90
2022-08-03T04:11:19.327Z,17.20
2022-08-03T04:14:04.617Z,17.00
2022-08-03T04:16:47.287Z,16.70
2022-08-03T04:19:29.641Z,15.80
2022-08-03T04:22:11.888Z,15.90
2022-08-03T04:24:54.851Z,16.00
2022-08-03T04:27:37.608Z,15.70
2022-08-03T04:30:17.276Z,16.00
2022-08-03T04:32:54.352Z,15.90
2022-08-03T04:35:58.569Z,15.00
2022-08-03T04:38:37.663Z,15.40
2022-08-03T04:43:52.945Z,14.80
2022-08-03T04:46:33.976Z,15.50
2022-08-03T04:49:11.375Z,14.70
2022-08-03T04:51:47.516Z,15.10
2022-08-03T04:54:23.545Z,15.80
2022-08-03T04:56:59.707Z,15.90
2022-08-03T04:59:35.898Z,15.90
2022-08-03T05:02:17.382Z,15.50
2022-08-03T05:04:53.930Z,16.10
2022-08-03T05:07:36.291Z,15.70
2022-08-03T05:10:16.240Z,15.90
2022-08-03T05:12:54.042Z,16.70
2022-08-03T05:15:30.516Z,15.80
2022-08-03T05:18:10.661Z,15.70
2022-08-03T05:20:49.491Z,14.90
2022-08-03T05:23:25.549Z,14.80
2022-08-03T05:26:02.109Z,14.30
2022-08-03T05:28:38.050Z,13.60
2022-08-03T05:31:14.036Z,13.80
2022-08-03T05:33:50.233Z,13.40
2022-08-03T05:36:26.354Z,12.90
2022-08-03T05:39:02.988Z,13.20
2022-08-03T05:41:39.189Z,13.40
2022-08-03T05:44:15.589Z,12.40
2022-08-03T05:46:51.517Z,12.50
2022-08-03T05:49:27.565Z,12.70
2022-08-03T05:52:13.789Z,12.80
2022-08-03T05:54:56.677Z,14.80
2022-08-03T05:57:33.389Z,13.40
2022-08-03T06:00:13.864Z,13.60
2022-08-03T06:02:51.581Z,13.70
2022-08-03T06:05:28.772Z,13.60
2022-08-03T06:08:05.206Z,13.80
2022-08-03T06:10:41.253Z,13.70
2022-08-03T06:13:17.203Z,14.90
2022-08-03T06:15:53.402Z,16.90
2022-08-03T06:18:29.317Z,15.90
2022-08-03T06:21:15.646Z,13.40
2022-08-03T06:23:54.122Z,13.40
2022-08-03T06:26:33.910Z,13.60
2022-08-03T06:29:10.035Z,12.00
2022-08-03T06:31:46.065Z,9.80
2022-08-03T06:34:32.100Z,9.40
2022-08-03T06:37:12.224Z,9.50
2022-08-03T06:39:48.375Z,9.50
2022-08-03T06:42:24.651Z,9.20
2022-08-03T06:45:01.512Z,9.30
2022-08-03T06:47:38.378Z,9.30
2022-08-03T06:50:26.268Z,8.90
2022-08-03T06:53:03.410Z,9.50
2022-08-03T06:55:40.782Z,9.00
2022-08-03T06:58:18.620Z,9.20
2022-08-03T07:00:54.949Z,10.30
2022-08-03T07:03:31.730Z,9.60
2022-08-03T07:06:09.324Z,9.30
2022-08-03T07:08:45.421Z,9.20
2022-08-03T07:11:21.370Z,8.80
2022-08-03T07:13:57.620Z,8.90
2022-08-03T07:16:33.571Z,9.00
2022-08-03T07:19:09.540Z,9.40
2022-08-03T07:21:46.051Z,9.50
2022-08-03T07:24:21.972Z,8.90
2022-08-03T07:26:57.909Z,9.40
2022-08-03T07:29:34.703Z,9.20
2022-08-03T07:32:11.722Z,9.80
2022-08-03T07:34:47.731Z,9.90
2022-08-03T07:37:23.791Z,9.00
2022-08-03T07:40:00.482Z,9.90
2022-08-03T07:42:36.691Z,9.80
2022-08-03T07:45:16.729Z,8.90
2022-08-03T07:47:53.910Z,10.40
2022-08-03T07:50:31.168Z,9.80
2022-08-03T07:53:07.288Z,8.90
2022-08-03T07:55:44.709Z,9.50
2022-08-03T07:58:24.386Z,8.70
2022-08-03T08:01:00.724Z,9.10
2022-08-03T08:03:52.410Z,9.40
2022-08-03T08:06:31.871Z,8.10
2022-08-03T08:09:08.059Z,7.70
2022-08-03T08:11:44.159Z,7.20
2022-08-03T08:14:20.153Z,8.30
2022-08-03T08:16:56.020Z,8.90
2022-08-03T08:19:31.979Z,8.20
2022-08-03T08:22:12.725Z,8.10
2022-08-03T08:24:51.188Z,8.50
2022-08-03T08:27:28.426Z,7.80
2022-08-03T08:30:26.004Z,8.40
2022-08-03T08:33:02.489Z,8.10
2022-08-03T08:35:38.537Z,6.60
2022-08-03T08:38:15.348Z,6.40
2022-08-03T08:40:52.688Z,6.80
2022-08-03T08:43:29.242Z,7.70
2022-08-03T08:46:08.556Z,6.60
2022-08-03T08:48:50.289Z,8.10
2022-08-03T08:51:59.391Z,7.40
2022-08-03T08:54:33.678Z,23.90
2022-08-03T08:57:26.765Z,8.30
2022-08-03T09:00:14.460Z,8.40
2022-08-03T09:02:51.354Z,8.30
2022-08-03T09:05:47.395Z,7.80
2022-08-03T09:08:24.384Z,8.00
2022-08-03T09:11:00.939Z,7.40
2022-08-03T09:13:37.529Z,8.10
2022-08-03T09:16:24.050Z,7.00
2022-08-03T09:19:15.084Z,7.00
2022-08-03T09:22:11.008Z,6.80
2022-08-03T09:25:23.886Z,6.90
2022-08-03T09:27:58.727Z,7.40
2022-08-03T09:30:36.014Z,6.90
2022-08-03T09:33:16.552Z,6.70
2022-08-03T09:35:57.816Z,6.50
2022-08-03T09:38:34.711Z,6.50
2022-08-03T09:41:21.589Z,5.80
2022-08-03T09:43:57.902Z,6.80
2022-08-03T09:46:34.387Z,6.20
2022-08-03T09:49:18.147Z,6.10
2022-08-03T09:52:31.569Z,5.80
2022-08-03T09:54:55.586Z,6.30
2022-08-03T09:57:32.648Z,5.80
2022-08-03T10:00:18.410Z,6.70
2022-08-03T10:03:08.259Z,6.70
2022-08-03T10:05:45.451Z,8.60
2022-08-03T10:08:23.449Z,6.20
2022-08-03T10:11:00.749Z,6.00
2022-08-03T10:13:37.588Z,6.70
2022-08-03T10:16:23.182Z,6.90
2022-08-03T10:19:02.182Z,7.50
2022-08-03T10:21:43.869Z,8.20
2022-08-03T10:24:28.279Z,8.30
2022-08-03T10:27:08.610Z,7.60
2022-08-03T10:29:51.514Z,7.50
2022-08-03T10:32:35.743Z,7.20
2022-08-03T10:35:20.112Z,8.70
2022-08-03T10:38:06.199Z,7.40
2022-08-03T10:40:53.493Z,6.90
2022-08-03T10:43:44.716Z,7.30
2022-08-03T10:46:22.900Z,7.70
2022-08-03T10:49:00.061Z,8.90
2022-08-03T10:51:37.267Z,9.70
2022-08-03T10:55:07.403Z,8.80
2022-08-03T10:57:58.632Z,9.10
2022-08-03T11:00:53.472Z,8.80
2022-08-03T11:03:29.475Z,7.90
2022-08-03T11:06:22.915Z,8.20
2022-08-03T11:09:22.833Z,7.90
2022-08-03T11:11:59.023Z,7.60
2022-08-03T11:14:51.302Z,8.30
2022-08-03T11:17:27.921Z,8.00
2022-08-03T11:20:05.578Z,9.30
2022-08-03T11:22:57.108Z,8.20
2022-08-03T11:26:10.624Z,8.00
2022-08-03T11:28:49.350Z,8.70
2022-08-03T11:31:52.274Z,8.80
2022-08-03T11:34:28.786Z,8.20
2022-08-03T11:37:33.170Z,8.20
2022-08-03T11:40:38.800Z,7.80
2022-08-03T11:43:48.415Z,8.30
2022-08-03T11:46:29.609Z,8.60
2022-08-03T11:49:12.590Z,8.00
2022-08-03T11:51:54.495Z,7.00
2022-08-03T11:54:31.028Z,6.50
2022-08-03T11:57:07.983Z,7.40
2022-08-03T11:59:43.854Z,7.60
2022-08-03T12:02:19.794Z,7.10
2022-08-03T12:05:01.605Z,7.40
2022-08-03T12:08:05.039Z,7.50
2022-08-03T12:10:49.189Z,8.00
2022-08-03T12:14:33.013Z,7.80
2022-08-03T12:16:29.098Z,7.80
2022-08-03T12:19:08.275Z,7.10
2022-08-03T12:21:57.308Z,6.80
2022-08-03T12:24:47.248Z,6.70
2022-08-03T12:27:31.468Z,6.60
2022-08-03T12:30:14.175Z,7.00
2022-08-03T12:32:51.162Z,6.60
2022-08-03T12:35:30.428Z,6.70
2022-08-03T12:38:07.101Z,6.20
2022-08-03T12:40:43.330Z,6.10
2022-08-03T12:43:19.928Z,6.40
2022-08-03T12:46:10.146Z,5.60
2022-08-03T12:49:15.452Z,6.10
2022-08-03T12:52:07.788Z,5.60
2022-08-03T12:54:45.942Z,5.60
2022-08-03T12:57:22.219Z,5.50
2022-08-03T13:00:21.172Z,5.00
2022-08-03T13:03:39.374Z,5.60
2022-08-03T13:06:11.707Z,5.60
2022-08-03T13:08:49.116Z,4.90
2022-08-03T13:11:57.237Z,5.20
2022-08-03T13:14:25.856Z,5.80
2022-08-03T13:17:02.072Z,5.30
2022-08-03T13:19:39.951Z,4.80
2022-08-03T13:22:22.895Z,5.30
2022-08-03T13:25:01.435Z,4.80
2022-08-03T13:28:13.780Z,5.10
2022-08-03T13:30:33.556Z,4.50
2022-08-03T13:33:11.301Z,5.00
2022-08-03T13:35:47.586Z,4.40
2022-08-03T13:38:27.203Z,3.80
2022-08-03T13:41:07.045Z,4.80
2022-08-03T13:43:43.535Z,5.00
2022-08-03T13:46:20.505Z,4.90
2022-08-03T13:48:56.599Z,5.40
2022-08-03T13:51:33.187Z,5.00
2022-08-03T13:54:09.765Z,4.40
2022-08-03T13:56:52.846Z,4.50
2022-08-03T13:59:29.233Z,4.60
2022-08-03T14:02:05.857Z,4.40
2022-08-03T14:04:41.814Z,4.10
2022-08-03T14:07:17.896Z,4.80
2022-08-03T14:09:54.186Z,4.70
2022-08-03T14:12:30.222Z,5.10
2022-08-03T14:15:10.179Z,4.70
2022-08-03T14:17:50.014Z,5.10
2022-08-03T14:20:38.683Z,4.70
2022-08-03T14:23:23.320Z,5.10
2022-08-03T14:26:00.914Z,4.60
2022-08-03T14:28:37.140Z,4.70
2022-08-03T14:32:09.055Z,5.00
2022-08-03T14:34:09.321Z,5.50
2022-08-03T14:36:47.274Z,5.10
2022-08-03T14:39:23.586Z,5.70
2022-08-03T14:41:59.672Z,4.90
2022-08-03T14:44:35.536Z,5.50
2022-08-03T14:47:11.776Z,5.10
2022-08-03T14:50:37.473Z,5.30
2022-08-03T14:52:44.072Z,5.40
2022-08-03T14:55:19.907Z,6.10
2022-08-03T14:57:56.921Z,5.70
2022-08-03T15:00:32.861Z,5.70
2022-08-03T15:03:09.217Z,6.00
2022-08-03T15:05:45.235Z,5.60
2022-08-03T15:08:21.484Z,5.10
2022-08-03T15:10:57.756Z,5.00
2022-08-03T15:13:33.721Z,5.40
2022-08-03T15:16:10.875Z,5.50
2022-08-03T15:18:47.359Z,6.20
2022-08-03T15:21:46.324Z,5.60
2022-08-03T15:24:19.266Z,5.70
2022-08-03T15:26:55.660Z,5.40
2022-08-03T15:30:06.716Z,5.10
2022-08-03T15:32:27.938Z,5.00
2022-08-03T15:35:04.466Z,5.20
2022-08-03T15:37:40.553Z,5.00
2022-08-03T15:40:17.906Z,5.70
2022-08-03T15:42:53.835Z,6.30
2022-08-03T15:45:35.242Z,6.20
2022-08-03T15:48:12.592Z,5.60
2022-08-03T15:50:48.619Z,5.90
2022-08-03T15:53:24.540Z,6.40
2022-08-03T15:56:01.073Z,6.70
2022-08-03T15:59:04.359Z,6.90
2022-08-03T16:01:34.753Z,6.80
2022-08-03T16:04:10.791Z,6.50
2022-08-03T16:06:46.670Z,6.60
2022-08-03T16:09:24.174Z,6.70
2022-08-03T16:12:18.524Z,6.20
2022-08-03T16:14:54.468Z,6.20
2022-08-03T16:17:31.006Z,6.00
2022-08-03T16:20:28.916Z,6.50
2022-08-03T16:23:11.205Z,6.90
2022-08-03T16:25:49.061Z,7.10
2022-08-03T16:28:25.114Z,6.40
2022-08-03T16:31:01.659Z,6.40
2022-08-03T16:33:37.861Z,6.10
2022-08-03T16:36:14.175Z,5.60
2022-08-03T16:38:50.194Z,5.90
2022-08-03T16:41:26.305Z,5.90
2022-08-03T16:44:22.617Z,5.70
2022-08-03T16:46:59.763Z,5.80
2022-08-03T16:49:54.747Z,5.60
2022-08-03T16:52:33.024Z,5.50
2022-08-03T16:55:15.381Z,5.80
2022-08-03T16:57:58.424Z,5.60
2022-08-03T17:00:41.564Z,5.30
2022-08-03T17:03:24.136Z,5.70
2022-08-03T17:06:01.755Z,6.10
2022-08-03T17:08:38.700Z,5.50
2022-08-03T17:11:16.588Z,6.00
2022-08-03T17:13:52.838Z,5.30
2022-08-03T17:16:28.917Z,5.90
2022-08-03T17:19:10.203Z,5.60
2022-08-03T17:24:41.452Z,6.00
2022-08-03T17:28:48.843Z,6.30
2022-08-03T17:30:43.562Z,6.10
2022-08-03T17:33:20.867Z,6.50
2022-08-03T17:35:59.181Z,6.20
2022-08-03T17:38:35.782Z,7.40
2022-08-03T17:41:12.408Z,6.70
2022-08-03T17:44:14.955Z,6.30
2022-08-03T17:46:48.043Z,7.30
2022-08-03T17:49:26.343Z,7.20
2022-08-03T17:52:10.038Z,7.30
2022-08-03T17:55:58.552Z,7.50
2022-08-03T17:58:15.005Z,6.80
2022-08-03T18:01:58.490Z,8.60
2022-08-03T18:04:12.694Z,7.60
2022-08-03T18:06:56.088Z,7.70
2022-08-03T18:10:03.653Z,8.30
2022-08-03T18:12:42.977Z,7.20
2022-08-03T18:15:35.519Z,8.00
2022-08-03T18:20:49.664Z,7.80
2022-08-03T18:23:36.677Z,8.70
2022-08-03T18:26:14.233Z,8.50
2022-08-03T18:28:54.913Z,8.10
2022-08-03T18:32:03.265Z,8.70
2022-08-03T18:34:33.456Z,8.40
2022-08-03T18:37:12.336Z,9.20
2022-08-03T18:39:57.861Z,9.10
2022-08-03T18:42:35.296Z,9.10
2022-08-03T18:45:14.693Z,9.30
2022-08-03T18:48:12.235Z,9.40
2022-08-03T18:51:02.970Z,9.00
2022-08-03T18:54:03.470Z,9.80
2022-08-03T18:56:52.788Z,10.70
2022-08-03T18:59:45.586Z,9.90
2022-08-03T19:02:42.142Z,10.40
2022-08-03T19:05:49.383Z,10.10
2022-08-03T19:08:38.236Z,13.20
2022-08-03T19:11:27.920Z,11.40
2022-08-03T19:14:11.448Z,10.80
2022-08-03T19:16:50.859Z,10.30
2022-08-03T19:19:28.530Z,10.90
2022-08-03T19:22:23.142Z,10.50
2022-08-03T19:25:02.829Z,11.60
2022-08-03T19:27:45.152Z,11.60
2022-08-03T19:30:39.028Z,11.20
2022-08-03T19:33:18.523Z,10.70
2022-08-03T19:35:57.137Z,11.50
2022-08-03T19:38:33.693Z,11.30
2022-08-03T19:41:14.864Z,11.60
2022-08-03T19:43:58.197Z,12.20
2022-08-03T19:46:41.612Z,12.00
2022-08-03T19:49:20.689Z,13.30
2022-08-03T19:52:00.941Z,13.60
2022-08-03T19:54:53.970Z,12.90
2022-08-03T19:57:33.823Z,12.70
2022-08-03T20:00:14.774Z,13.20
2022-08-03T20:02:52.484Z,12.30
2022-08-03T20:05:29.726Z,12.80
2022-08-03T20:08:23.122Z,12.80
2022-08-03T20:11:00.507Z,12.70
2022-08-03T20:13:39.131Z,16.00
2022-08-03T20:16:15.936Z,13.50
2022-08-03T20:18:52.123Z,13.00
2022-08-03T20:21:32.741Z,13.20
2022-08-03T20:24:23.301Z,12.60
2022-08-03T20:27:05.188Z,13.00
2022-08-03T20:30:06.477Z,13.20
2022-08-03T20:32:45.291Z,13.30
2022-08-03T20:35:21.377Z,12.90
2022-08-03T20:37:57.684Z,12.80
2022-08-03T20:40:35.802Z,13.60
2022-08-03T20:43:14.371Z,13.60
2022-08-03T20:46:00.052Z,13.70
2022-08-03T20:48:48.574Z,13.20
2022-08-03T20:51:50.448Z,13.30
2022-08-03T20:54:31.077Z,13.80
2022-08-03T20:57:11.549Z,14.00
2022-08-03T20:59:51.738Z,13.20
2022-08-03T21:02:30.053Z,13.90
2022-08-03T21:05:10.032Z,13.90
2022-08-03T21:08:05.625Z,14.90
2022-08-03T21:10:46.565Z,15.00
2022-08-03T21:13:45.518Z,16.20
2022-08-03T21:16:28.364Z,15.90
2022-08-03T21:19:09.859Z,15.00
2022-08-03T21:21:51.139Z,14.50
2022-08-03T21:24:31.938Z,14.10
2022-08-03T21:27:11.596Z,14.20
2022-08-03T21:29:52.981Z,14.50
2022-08-03T21:32:33.598Z,14.80
2022-08-03T21:35:14.164Z,14.20
2022-08-03T21:38:09.114Z,14.50
2022-08-03T21:40:45.841Z,14.70
2022-08-03T21:43:27.359Z,14.90
2022-08-03T21:46:08.970Z,15.30
2022-08-03T21:48:52.099Z,14.30
2022-08-03T21:51:33.126Z,15.00
2022-08-03T21:54:10.737Z,14.70
2022-08-03T21:56:54.263Z,14.80
2022-08-03T21:59:33.987Z,15.20
2022-08-03T22:02:11.486Z,16.10
2022-08-03T22:05:00.727Z,15.70
2022-08-03T22:07:42.598Z,15.70
2022-08-03T22:10:18.987Z,15.20
2022-08-03T22:12:55.128Z,14.90
2022-08-03T22:15:31.772Z,15.70
2022-08-03T22:18:08.475Z,15.70
2022-08-03T22:20:45.174Z,131.40
2022-08-03T22:23:26.788Z,23.10
2022-08-03T22:26:07.724Z,16.90
2022-08-03T22:28:44.724Z,16.20
2022-08-03T22:31:30.986Z,15.60
2022-08-03T22:34:18.018Z,15.70
2022-08-03T22:37:08.021Z,15.80
2022-08-03T22:39:48.065Z,15.90
2022-08-03T22:42:26.860Z,16.10
2022-08-03T22:45:05.493Z,16.60
2022-08-03T22:47:43.829Z,15.50
2022-08-03T22:50:33.460Z,15.60
2022-08-03T22:53:11.237Z,16.20
2022-08-03T22:55:48.544Z,16.70
2022-08-03T22:58:25.386Z,15.60
2022-08-03T23:01:07.800Z,15.80
2022-08-03T23:04:00.254Z,15.10
2022-08-03T23:06:42.549Z,15.60
2022-08-03T23:09:24.442Z,16.60
2022-08-03T23:12:04.221Z,15.50
2022-08-03T23:14:45.168Z,15.20
2022-08-03T23:17:23.607Z,15.40
2022-08-03T23:20:04.782Z,15.70
2022-08-03T23:22:45.274Z,14.40
2022-08-03T23:25:24.841Z,15.50
2022-08-03T23:28:06.143Z,15.50
2022-08-03T23:30:43.245Z,15.60
2022-08-03T23:33:22.024Z,14.80
2022-08-03T23:36:29.296Z,15.00
2022-08-03T23:39:03.276Z,15.40
2022-08-03T23:41:42.171Z,16.10
2022-08-03T23:44:20.085Z,15.70
2022-08-03T23:46:56.447Z,14.50
2022-08-03T23:49:32.551Z,15.70
2022-08-03T23:52:21.885Z,14.70
2022-08-03T23:55:17.890Z,16.20
2022-08-03T23:58:18.132Z,15.20
